Aviation Digital Data Service (ADDS)

Output produced by TAFs form (2330 UTC 17 January 2017)
found at http://www.aviationweather.gov/adds/tafs/
 
TAF AMD KDOV 172251Z 1722/1822 15009KT 6000 -SHRA OVC004 610909 QNH2996INS 
     BECMG 1802/1803 21009KT 9999 NSW OVC006 QNH2988INS 
     BECMG 1812/1813 30009KT 9999 OVC020 QNH3001INS TX10/1806Z TN06/1722Z